Time;durP1;ratioP1;P1;durP2;ratioP2;P2;SDS_P1;SDS_P2;PMS_P1;PMS_P2;Temp;Humidity;BMP_temperature;BMP_pressure;BME280_temperature;BME280_humidity;BME280_pressure;Samples;Min_cycle;Max_cycle;Signal;HPM_P1;HPM_P2
2022/01/30 00:01:08;;;;;;;7.05;4.47;;;;;;;7.52;100.00;102374.13;5101029;28;20521;-76
2022/01/30 00:03:33;;;;;;;7.38;4.78;;;;;;;7.51;100.00;102360.50;5063102;28;20477;-76
2022/01/30 00:05:59;;;;;;;7.75;5.28;;;;;;;7.50;100.00;102362.44;5104806;28;20030;-76
2022/01/30 00:08:24;;;;;;;12.02;5.38;;;;;;;7.54;100.00;102365.56;5085678;28;20032;-76
2022/01/30 00:10:56;;;;;;;11.48;6.13;;;;;;;7.53;100.00;102366.66;5108710;28;20475;-76
2022/01/30 00:13:24;;;;;;;7.75;5.03;;;;;;;7.53;100.00;102355.59;5087702;28;20383;-76
2022/01/30 00:15:53;;;;;;;9.63;5.65;;;;;;;7.53;100.00;102356.44;5081975;28;20055;-75
2022/01/30 00:21:15;;;;;;;7.85;4.90;;;;;;;7.52;100.00;102354.75;5074936;28;20620;-76
2022/01/30 00:23:48;;;;;;;10.50;5.13;;;;;;;7.50;100.00;102351.38;5069982;28;20036;-76
2022/01/30 00:26:16;;;;;;;;;;;;;;;7.49;100.00;102348.81;5080545;28;20038;-76
2022/01/30 00:28:41;;;;;;;8.07;5.05;;;;;;;7.49;100.00;102346.91;5083127;28;19911;-76
2022/01/30 00:31:07;;;;;;;7.45;4.68;;;;;;;7.48;100.00;102339.69;5113621;28;20479;-76
2022/01/30 00:33:32;;;;;;;8.13;4.75;;;;;;;7.52;100.00;102342.84;5086606;28;20047;-76
2022/01/30 00:35:58;;;;;;;10.10;4.80;;;;;;;7.50;100.00;102329.25;5100765;28;20364;-77
2022/01/30 00:38:24;;;;;;;10.32;5.57;;;;;;;7.48;100.00;102331.41;5115417;28;20027;-76
2022/01/30 00:40:50;;;;;;;9.32;4.95;;;;;;;7.46;100.00;102333.53;5113685;28;20031;-76
2022/01/30 00:43:16;;;;;;;8.32;5.18;;;;;;;7.48;100.00;102336.91;5107148;27;20043;-76
2022/01/30 00:45:42;;;;;;;9.27;5.38;;;;;;;7.51;100.00;102335.63;5126950;27;20019;-76
2022/01/30 00:48:07;;;;;;;8.10;5.40;;;;;;;7.52;100.00;102326.25;5124585;27;20360;-76
2022/01/30 00:50:33;;;;;;;11.50;5.80;;;;;;;7.49;100.00;102330.31;5096453;27;20046;-76
2022/01/30 00:52:58;;;;;;;7.45;5.03;;;;;;;7.47;100.00;102326.09;5123157;27;20028;-76
2022/01/30 00:55:28;;;;;;;6.18;4.53;;;;;;;7.50;100.00;102322.88;5106490;28;20547;-76
2022/01/30 00:57:53;;;;;;;7.05;4.50;;;;;;;7.49;100.00;102315.63;5100049;27;20043;-76
2022/01/30 01:00:19;;;;;;;7.60;4.60;;;;;;;7.46;100.00;102313.34;5122325;27;20031;-76
2022/01/30 01:02:45;;;;;;;8.95;4.80;;;;;;;7.46;100.00;102321.63;5116595;27;20157;-76
2022/01/30 01:05:10;;;;;;;6.93;4.20;;;;;;;7.45;100.00;102317.19;5124800;27;20492;-76
2022/01/30 01:07:40;;;;;;;9.02;4.38;;;;;;;7.48;100.00;102311.19;5086018;28;20043;-76
2022/01/30 01:10:12;;;;;;;7.43;4.22;;;;;;;7.48;100.00;102302.91;5129545;27;20027;-76
2022/01/30 01:13:00;;;;;;;7.57;4.85;;;;;;;7.47;100.00;102301.22;5106336;27;20547;-76
2022/01/30 01:23:27;;;;;;;5.93;4.25;;;;;;;7.48;100.00;102297.38;5116668;27;20042;-76
2022/01/30 01:25:55;;;;;;;6.45;4.35;;;;;;;7.50;100.00;102303.53;5106763;28;20024;-76
2022/01/30 01:28:21;;;;;;;6.32;4.15;;;;;;;7.48;100.00;102300.97;5115994;27;20040;-76
2022/01/30 01:30:46;;;;;;;5.30;3.85;;;;;;;7.50;100.00;102295.22;5109411;27;20046;-76
2022/01/30 01:33:13;;;;;;;5.63;3.85;;;;;;;7.49;100.00;102302.66;5114522;28;20044;-76
2022/01/30 01:35:38;;;;;;;5.55;3.38;;;;;;;7.48;100.00;102292.69;5079241;28;20033;-76
2022/01/30 01:38:05;;;;;;;6.03;3.80;;;;;;;7.45;100.00;102295.91;5071009;28;20029;-76
2022/01/30 01:40:30;;;;;;;4.60;3.38;;;;;;;7.45;100.00;102284.03;5065425;28;20028;-76
2022/01/30 01:43:00;;;;;;;4.35;3.60;;;;;;;7.47;100.00;102281.88;5068138;28;20065;-76
2022/01/30 01:45:32;;;;;;;5.53;3.70;;;;;;;7.45;100.00;102282.09;5086408;28;20043;-76
2022/01/30 01:48:01;;;;;;;4.47;3.10;;;;;;;7.47;100.00;102281.88;5110163;28;20451;-76
2022/01/30 01:50:38;;;;;;;4.00;2.90;;;;;;;7.47;100.00;102290.16;5092581;28;20036;-76
2022/01/30 01:53:06;;;;;;;4.35;2.97;;;;;;;7.47;100.00;102291.00;5096893;28;20039;-76
2022/01/30 01:55:31;;;;;;;4.30;3.35;;;;;;;7.46;100.00;102286.53;5095664;28;20035;-76
2022/01/30 01:57:57;;;;;;;5.18;3.75;;;;;;;7.46;100.00;102286.53;5099251;28;20069;-76
2022/01/30 02:00:22;;;;;;;5.32;3.90;;;;;;;7.48;100.00;102297.38;5085091;28;20043;-76
2022/01/30 02:02:48;;;;;;;4.15;3.45;;;;;;;7.47;100.00;102284.63;5098172;28;20032;-76
2022/01/30 02:05:13;;;;;;;5.40;2.72;;;;;;;7.45;100.00;102286.78;5098041;28;20036;-76
2022/01/30 02:11:09;;;;;;;4.93;3.45;;;;;;;7.46;100.00;102278.25;5106711;28;20039;-76
2022/01/30 02:13:31;;;;;;;4.32;3.53;;;;;;;7.45;100.00;102282.09;5086377;28;20109;-76
2022/01/30 02:24:12;;;;;;;5.30;3.00;;;;;;;7.46;100.00;102266.34;5073333;28;20031;-76
2022/01/30 02:26:41;;;;;;;4.45;2.80;;;;;;;7.47;100.00;102271.66;5101376;28;20030;-76
2022/01/30 02:29:06;;;;;;;3.42;2.60;;;;;;;7.46;100.00;102266.34;5072280;28;20608;-76
2022/01/30 02:31:35;;;;;;;3.20;2.50;;;;;;;7.46;100.00;102277.41;5077571;27;20051;-76
2022/01/30 02:34:01;;;;;;;2.63;2.35;;;;;;;7.45;100.00;102270.19;5111044;27;20093;-76
2022/01/30 02:36:26;;;;;;;3.25;2.70;;;;;;;7.44;100.00;102265.72;5112619;27;20035;-76
2022/01/30 02:38:56;;;;;;;4.05;2.80;;;;;;;7.46;100.00;102260.81;5096184;27;20058;-75
2022/01/30 02:41:22;;;;;;;2.97;2.65;;;;;;;7.41;100.00;102260.66;5110685;27;20471;-76
2022/01/30 02:43:58;;;;;;;3.92;3.03;;;;;;;7.43;100.00;102264.03;5130494;27;20035;-76
2022/01/30 02:46:30;;;;;;;4.13;2.70;;;;;;;7.43;100.00;102266.81;5123330;27;20039;-76
2022/01/30 02:48:59;;;;;;;3.40;2.47;;;;;;;7.44;100.00;102247.25;5099758;27;20061;-76
2022/01/30 02:51:33;;;;;;;3.53;2.50;;;;;;;7.38;100.00;102248.13;5117578;27;20031;-76
2022/01/30 02:54:05;;;;;;;4.28;3.05;;;;;;;7.44;100.00;102251.91;5109288;27;20073;-76
2022/01/30 02:56:31;;;;;;;3.23;2.90;;;;;;;7.42;100.00;102237.50;5092202;27;20024;-76
2022/01/30 02:58:56;;;;;;;5.20;2.80;;;;;;;7.43;100.00;102247.47;5112324;28;20612;-76
2022/01/30 03:01:22;;;;;;;3.20;2.13;;;;;;;7.44;100.00;102236.19;5098122;27;20559;-76
2022/01/30 03:03:47;;;;;;;2.90;2.58;;;;;;;7.42;100.00;102229.19;5123633;27;20027;-76
2022/01/30 03:06:13;;;;;;;3.17;2.40;;;;;;;7.41;100.00;102222.81;5119516;27;20031;-75
2022/01/30 03:08:38;;;;;;;2.83;2.30;;;;;;;7.38;100.00;102226.91;5117309;27;20042;-76
2022/01/30 03:11:04;;;;;;;2.95;2.65;;;;;;;7.42;100.00;102226.44;5114245;28;20387;-76
2022/01/30 03:13:30;;;;;;;4.50;2.80;;;;;;;7.42;100.00;102231.97;5102118;27;20506;-75
2022/01/30 03:15:56;;;;;;;3.15;2.55;;;;;;;7.43;100.00;102230.88;5116318;27;20030;-76
2022/01/30 03:18:21;;;;;;;5.05;2.60;;;;;;;7.44;100.00;102232.56;5136612;27;20031;-76
2022/01/30 03:20:48;;;;;;;3.38;2.47;;;;;;;7.44;100.00;102235.31;5130940;27;20034;-76
2022/01/30 03:23:14;;;;;;;3.03;2.55;;;;;;;7.42;100.00;102230.03;5111468;27;20050;-76
2022/01/30 03:25:39;;;;;;;3.60;2.38;;;;;;;7.42;100.00;102229.19;5083358;27;20023;-76
2022/01/30 03:28:05;;;;;;;2.90;2.30;;;;;;;7.37;100.00;102225.19;5131097;27;20027;-75
2022/01/30 03:30:31;;;;;;;3.75;2.95;;;;;;;7.39;100.00;102231.34;5128448;27;20064;-76
2022/01/30 03:32:57;;;;;;;3.70;2.60;;;;;;;7.35;100.00;102227.34;5092887;28;20036;-76
2022/01/30 03:35:22;;;;;;;4.57;2.90;;;;;;;7.41;100.00;102230.25;5102711;28;20088;-75
2022/01/30 03:37:48;;;;;;;2.90;2.35;;;;;;;7.41;100.00;102227.47;5094160;28;20051;-76
2022/01/30 03:40:13;;;;;;;4.20;2.97;;;;;;;7.39;100.00;102224.97;5077095;28;20071;-76
2022/01/30 03:42:39;;;;;;;4.00;3.10;;;;;;;7.41;100.00;102214.53;5102534;28;20027;-75
2022/01/30 03:45:05;;;;;;;4.15;3.00;;;;;;;7.41;100.00;102213.66;5050528;28;20036;-75
2022/01/30 03:47:30;;;;;;;3.97;3.00;;;;;;;7.41;100.00;102214.53;5083942;28;20503;-76
2022/01/30 03:49:56;;;;;;;3.88;2.60;;;;;;;7.41;100.00;102219.19;5095172;28;20023;-75
2022/01/30 03:52:21;;;;;;;4.50;3.25;;;;;;;7.42;100.00;102220.91;5099028;28;20089;-76
2022/01/30 03:54:47;;;;;;;3.30;2.60;;;;;;;7.37;100.00;102219.66;5084833;28;20032;-76
2022/01/30 03:57:13;;;;;;;3.35;2.45;;;;;;;7.40;100.00;102215.59;5068125;28;20032;-76
2022/01/30 03:59:38;;;;;;;3.45;2.80;;;;;;;7.42;100.00;102220.91;5093400;28;20111;-76
2022/01/30 04:02:04;;;;;;;3.97;2.90;;;;;;;7.39;100.00;102217.50;5081114;28;20046;-76
2022/01/30 04:04:31;;;;;;;3.67;3.15;;;;;;;7.40;100.00;102215.59;5088118;28;20426;-76
2022/01/30 04:06:57;;;;;;;3.78;3.38;;;;;;;7.41;100.00;102219.19;5097963;28;20035;-76
2022/01/30 04:09:24;;;;;;;4.88;4.38;;;;;;;7.38;100.00;102210.31;5088226;28;20480;-76
2022/01/30 04:11:49;;;;;;;5.15;4.72;;;;;;;7.37;100.00;102208.59;5061041;28;20058;-76
2022/01/30 04:14:15;;;;;;;5.53;4.60;;;;;;;7.38;100.00;102206.69;5070854;28;20472;-76
2022/01/30 04:16:40;;;;;;;4.55;3.85;;;;;;;7.39;100.00;102211.16;5079899;28;20024;-75
2022/01/30 04:19:07;;;;;;;4.10;3.70;;;;;;;7.38;100.00;102207.53;5071326;28;20032;-76
2022/01/30 04:21:32;;;;;;;3.67;3.38;;;;;;;7.38;100.00;102218.59;5082167;28;20059;-75
2022/01/30 04:23:58;;;;;;;3.67;3.38;;;;;;;7.39;100.00;102217.50;5086486;28;20028;-76
2022/01/30 04:26:23;;;;;;;5.40;3.63;;;;;;;7.38;100.00;102203.91;5101651;28;20027;-75
2022/01/30 04:28:49;;;;;;;3.47;2.63;;;;;;;7.33;100.00;102214.84;5087513;28;20031;-76
2022/01/30 04:31:15;;;;;;;3.45;2.72;;;;;;;7.36;100.00;102209.69;5112551;28;20491;-75
2022/01/30 04:33:41;;;;;;;3.97;3.10;;;;;;;7.36;100.00;102217.97;5135235;28;20535;-76
2022/01/30 04:36:09;;;;;;;3.33;3.03;;;;;;;7.38;100.00;102217.72;5115057;28;20031;-76
2022/01/30 04:52:18;;;;;;;3.53;2.70;;;;;;;7.36;100.00;102226.28;5104270;27;20031;-76
2022/01/30 04:57:54;;;;;;;3.72;2.70;;;;;;;7.34;100.00;102219.28;5129172;28;20648;-75
2022/01/30 05:00:29;;;;;;;3.83;3.05;;;;;;;7.32;100.00;102216.75;5117754;28;20031;-75
2022/01/30 05:03:07;;;;;;;3.60;3.05;;;;;;;7.33;100.00;102209.31;5118474;28;20024;-76
2022/01/30 05:06:00;;;;;;;4.53;2.70;;;;;;;7.33;100.00;102220.38;5105786;28;20479;-76
2022/01/30 05:08:25;;;;;;;3.42;2.90;;;;;;;7.36;100.00;102214.38;5132926;28;20066;-75
2022/01/30 05:10:53;;;;;;;4.13;3.17;;;;;;;7.35;100.00;102213.53;5131710;28;20110;-76
2022/01/30 05:13:21;;;;;;;4.60;3.63;;;;;;;7.33;100.00;102225.91;5135971;28;20099;-76
2022/01/30 05:15:47;;;;;;;4.35;3.60;;;;;;;7.30;100.00;102232.72;5115788;28;20037;-75
2022/01/30 05:18:26;;;;;;;5.38;4.03;;;;;;;7.29;100.00;102228.25;5115477;28;20515;-76
2022/01/30 05:20:52;;;;;;;7.18;4.35;;;;;;;7.29;100.00;102239.31;5116009;28;20471;-77
2022/01/30 05:23:18;;;;;;;8.43;3.70;;;;;;;7.29;100.00;102228.25;5109996;28;20028;-76
2022/01/30 05:25:45;;;;;;;12.98;3.78;;;;;;;7.27;100.00;102238.72;5111636;28;20035;-76
2022/01/30 05:28:11;;;;;;;7.97;3.67;;;;;;;7.28;100.00;102237.63;5100470;27;20028;-75
2022/01/30 05:30:37;;;;;;;8.93;2.92;;;;;;;7.26;100.00;102233.41;5076955;28;20040;-76
2022/01/30 05:33:02;;;;;;;9.80;3.17;;;;;;;7.27;100.00;102224.03;5106700;28;20078;-76
2022/01/30 05:35:28;;;;;;;11.43;3.45;;;;;;;7.26;100.00;102234.25;5091209;28;20123;-76
2022/01/30 05:37:54;;;;;;;12.70;3.20;;;;;;;7.24;100.00;102230.03;5084001;28;20029;-75
2022/01/30 05:40:21;;;;;;;11.45;3.28;;;;;;;7.24;100.00;102236.38;5072903;28;20522;-76
2022/01/30 05:42:46;;;;;;;14.32;3.45;;;;;;;7.24;100.00;102230.84;5108401;28;20028;-75
2022/01/30 05:45:20;;;;;;;13.25;3.05;;;;;;;7.22;100.00;102233.03;5105917;28;20039;-76
2022/01/30 05:47:54;;;;;;;19.52;4.00;;;;;;;7.23;100.00;102231.94;5072108;28;20472;-76
2022/01/30 05:50:20;;;;;;;9.50;2.65;;;;;;;7.23;100.00;102233.88;5086305;28;20077;-76
2022/01/30 05:52:46;;;;;;;14.32;3.40;;;;;;;7.21;100.00;102228.56;5079557;28;20480;-76
2022/01/30 05:55:12;;;;;;;16.02;3.28;;;;;;;7.22;100.00;102232.19;5080681;28;20047;-75
2022/01/30 05:57:37;;;;;;;13.70;3.30;;;;;;;7.20;100.00;102234.34;5066438;28;20112;-76
2022/01/30 06:00:07;;;;;;;13.48;3.38;;;;;;;7.20;100.00;102235.16;5101609;28;20041;-76
2022/01/30 06:02:32;;;;;;;13.77;3.60;;;;;;;7.22;100.00;102237.72;5093460;28;20119;-75
2022/01/30 06:04:58;;;;;;;11.70;3.55;;;;;;;7.21;100.00;102234.09;5086709;28;20032;-76
2022/01/30 06:07:29;;;;;;;10.45;3.40;;;;;;;7.20;100.00;102235.16;5098367;28;20035;-76
2022/01/30 06:09:54;;;;;;;11.43;3.17;;;;;;;7.23;100.00;102220.06;5094152;28;20074;-76
2022/01/30 06:12:20;;;;;;;12.38;3.47;;;;;;;7.24;100.00;102222.56;5083675;28;20035;-76
2022/01/30 06:14:46;;;;;;;7.95;3.10;;;;;;;7.23;100.00;102231.94;5103192;28;20035;-76
2022/01/30 06:17:13;;;;;;;12.98;3.20;;;;;;;7.24;100.00;102241.06;5097315;28;20520;-76
2022/01/30 06:19:38;;;;;;;13.85;3.88;;;;;;;7.24;100.00;102222.56;5111269;28;20478;-76
2022/01/30 06:22:04;;;;;;;11.88;3.42;;;;;;;7.22;100.00;102227.50;5112216;28;20075;-75
2022/01/30 06:24:29;;;;;;;16.38;3.35;;;;;;;7.21;100.00;102233.25;5101853;28;20031;-75
2022/01/30 06:26:55;;;;;;;13.13;3.20;;;;;;;7.22;100.00;102232.19;5088350;28;20032;-75
2022/01/30 06:29:20;;;;;;;11.77;3.03;;;;;;;7.19;100.00;102241.78;5100183;28;20043;-76
2022/01/30 06:31:46;;;;;;;11.48;3.35;;;;;;;7.17;100.00;102241.16;5108773;28;20164;-76
2022/01/30 06:34:11;;;;;;;7.35;2.88;;;;;;;7.14;100.00;102242.47;5109401;28;20048;-76
2022/01/30 06:36:36;;;;;;;10.32;3.08;;;;;;;7.14;100.00;102244.38;5074498;28;20493;-76
2022/01/30 06:39:02;;;;;;;11.85;2.95;;;;;;;7.13;100.00;102248.19;5093574;28;20048;-76
2022/01/30 06:41:28;;;;;;;14.98;3.60;;;;;;;7.15;100.00;102246.06;5087829;28;20492;-76
2022/01/30 06:43:53;;;;;;;10.45;3.65;;;;;;;7.14;100.00;102247.97;5118938;27;20487;-76
2022/01/30 06:46:19;;;;;;;12.15;2.97;;;;;;;7.12;100.00;102254.81;5097521;28;20032;-76
2022/01/30 06:48:44;;;;;;;16.85;3.55;;;;;;;7.06;100.00;102256.56;5097487;28;20036;-76
2022/01/30 06:51:10;;;;;;;17.13;3.42;;;;;;;7.03;100.00;102240.44;5110350;28;20035;-75
2022/01/30 06:53:35;;;;;;;15.05;3.70;;;;;;;7.04;100.00;102233.84;5091393;28;20043;-76
2022/01/30 06:56:01;;;;;;;14.95;3.90;;;;;;;7.03;100.00;102245.97;5095516;28;20032;-76
2022/01/30 06:58:26;;;;;;;17.77;3.97;;;;;;;6.98;100.00;102256.88;5072917;28;20039;-75
2022/01/30 07:00:52;;;;;;;16.00;3.70;;;;;;;6.98;100.00;102243.06;5105181;28;20453;-75
2022/01/30 07:03:17;;;;;;;18.52;4.43;;;;;;;6.99;100.00;102241.13;5097779;28;20035;-76
2022/01/30 07:05:42;;;;;;;18.83;3.72;;;;;;;6.99;100.00;102246.66;5082739;27;20044;-76
2022/01/30 07:08:08;;;;;;;15.40;4.57;;;;;;;6.96;100.00;102247.09;5115799;28;20027;-75
2022/01/30 07:10:33;;;;;;;23.05;5.43;;;;;;;6.95;100.00;102246.28;5084253;28;20064;-76
2022/01/30 07:12:59;;;;;;;21.85;4.65;;;;;;;6.92;100.00;102244.81;5087108;28;20040;-76
2022/01/30 07:15:24;;;;;;;16.98;4.18;;;;;;;6.89;100.00;102250.78;5087027;28;20028;-76
2022/01/30 07:17:50;;;;;;;20.55;3.75;;;;;;;6.87;100.00;102263.97;5077844;28;20051;-75
2022/01/30 07:20:15;;;;;;;19.10;4.05;;;;;;;6.84;100.00;102253.38;5094531;28;20373;-75
2022/01/30 07:22:41;;;;;;;16.17;3.78;;;;;;;6.80;100.00;102252.16;5095438;28;20028;-75
2022/01/30 07:25:07;;;;;;;19.38;4.45;;;;;;;6.81;100.00;102241.94;5110638;28;20031;-75
2022/01/30 07:27:37;;;;;;;17.63;4.43;;;;;;;6.78;100.00;102245.16;5115416;27;20464;-75
2022/01/30 07:30:06;;;;;;;21.92;4.75;;;;;;;6.69;100.00;102258.41;5081030;28;20039;-76
2022/01/30 07:32:31;;;;;;;20.42;4.97;;;;;;;6.69;100.00;102255.66;5085073;28;20443;-75
2022/01/30 07:34:58;;;;;;;24.27;5.53;;;;;;;6.66;100.00;102242.31;5072637;28;20043;-75
2022/01/30 07:37:23;;;;;;;22.42;5.40;;;;;;;6.59;100.00;102255.31;5073550;28;20391;-76
2022/01/30 07:39:49;;;;;;;24.27;5.43;;;;;;;6.55;100.00;102256.84;5094030;28;20024;-76
2022/01/30 07:42:14;;;;;;;25.60;5.82;;;;;;;6.46;100.00;102257.13;5078866;27;20042;-75
2022/01/30 07:44:40;;;;;;;17.27;4.65;;;;;;;6.48;100.00;102267.91;5097405;28;20036;-75
2022/01/30 07:47:05;;;;;;;27.52;5.93;;;;;;;6.39;100.00;102264.59;5092264;28;20464;-75
2022/01/30 07:49:31;;;;;;;24.48;5.43;;;;;;;6.33;100.00;102259.13;5091701;28;20024;-76
2022/01/30 07:51:56;;;;;;;28.05;5.80;;;;;;;6.30;100.00;102251.31;5076284;28;20090;-77
2022/01/30 07:54:22;;;;;;;24.05;4.72;;;;;;;6.20;100.00;102266.41;5089822;28;20028;-75
2022/01/30 07:56:47;;;;;;;26.33;5.55;;;;;;;6.19;100.00;102273.00;5039676;28;20101;-76
2022/01/30 07:59:13;;;;;;;30.77;6.47;;;;;;;6.13;100.00;102267.50;5074015;28;20036;-76
2022/01/30 08:01:38;;;;;;;24.33;4.65;;;;;;;6.08;100.00;102272.88;5071394;28;20036;-76
2022/01/30 08:04:06;;;;;;;26.48;5.35;;;;;;;6.00;100.00;102277.56;5070632;28;20039;-76
2022/01/30 08:06:34;;;;;;;23.95;5.15;;;;;;;5.93;100.00;102273.09;5055014;28;20043;-76
2022/01/30 08:09:00;;;;;;;29.35;5.43;;;;;;;5.91;100.00;102281.63;5074874;28;20032;-76
2022/01/30 08:11:25;;;;;;;32.92;5.82;;;;;;;5.85;100.00;102289.91;5100074;28;20500;-75
2022/01/30 08:13:51;;;;;;;26.75;5.88;;;;;;;5.82;100.00;102289.31;5103890;28;20030;-76
2022/01/30 08:16:18;;;;;;;21.27;5.25;;;;;;;5.78;100.00;102277.00;5076120;28;20028;-76
2022/01/30 08:18:43;;;;;;;34.80;6.55;;;;;;;5.79;100.00;102283.34;5079774;28;20039;-76
2022/01/30 08:21:09;;;;;;;25.60;6.07;;;;;;;5.76;100.00;102289.31;5069845;28;20469;-76
2022/01/30 08:23:34;;;;;;;35.13;6.55;;;;;;;5.75;100.00;102282.13;5087860;28;20031;-76
2022/01/30 08:26:00;;;;;;;28.70;5.82;;;;;;;5.78;100.00;102270.66;5080801;28;20032;-76
2022/01/30 08:28:26;;;;;;;23.02;5.60;;;;;;;5.75;100.00;102274.69;5078366;28;20063;-76
2022/01/30 08:30:51;;;;;;;25.52;5.10;;;;;;;5.77;100.00;102285.50;5103543;28;20051;-76
2022/01/30 08:33:17;;;;;;;28.88;5.55;;;;;;;5.79;100.00;102277.84;5116369;28;20088;-72
2022/01/30 08:35:43;;;;;;;32.83;6.00;;;;;;;5.83;100.00;102274.44;5117753;28;20024;-73
2022/01/30 08:38:10;;;;;;;24.27;5.25;;;;;;;5.90;100.00;102284.59;5097555;28;20042;-73
2022/01/30 08:40:36;;;;;;;24.08;5.28;;;;;;;5.95;100.00;102282.88;5122662;28;20039;-73
2022/01/30 08:43:01;;;;;;;21.88;4.90;;;;;;;5.97;100.00;102286.28;5122614;27;20031;-74
2022/01/30 08:45:27;;;;;;;21.70;4.45;;;;;;;5.99;100.00;102286.91;5096724;28;20356;-75
2022/01/30 08:47:53;;;;;;;22.80;4.57;;;;;;;6.03;100.00;102290.91;5124171;28;20030;-75
2022/01/30 08:50:19;;;;;;;24.88;5.38;;;;;;;6.07;100.00;102295.97;5094932;28;20468;-75
2022/01/30 08:52:45;;;;;;;20.80;5.05;;;;;;;6.11;100.00;102291.72;5127375;28;20028;-75
2022/01/30 08:55:10;;;;;;;19.88;5.20;;;;;;;6.17;100.00;102290.84;5085762;28;20042;-72
2022/01/30 08:57:36;;;;;;;28.27;6.35;;;;;;;6.22;100.00;102291.88;5100528;28;20046;-71
2022/01/30 09:00:03;;;;;;;28.75;6.95;;;;;;;6.30;100.00;102300.97;5107018;28;20035;-74
2022/01/30 09:02:29;;;;;;;22.42;7.07;;;;;;;6.37;100.00;102291.56;5075895;28;20020;-76
2022/01/30 09:04:54;;;;;;;26.95;7.57;;;;;;;6.46;100.00;102289.38;5113833;27;20032;-75
2022/01/30 09:07:20;;;;;;;24.45;6.78;;;;;;;6.53;100.00;102290.19;5107848;28;20384;-74
2022/01/30 09:09:45;;;;;;;24.65;7.18;;;;;;;6.60;100.00;102279.94;5120842;27;20027;-74
2022/01/30 09:12:11;;;;;;;21.92;7.97;;;;;;;6.69;100.00;102283.28;5114082;27;20031;-75
2022/01/30 09:14:39;;;;;;;36.78;8.77;;;;;;;6.77;100.00;102279.34;5113408;28;20416;-75
2022/01/30 09:17:12;;;;;;;30.95;8.23;;;;;;;6.78;100.00;102286.59;5104401;28;20027;-75
2022/01/30 09:19:38;;;;;;;28.75;7.97;;;;;;;6.85;100.00;102274.44;5135793;27;20035;-75
2022/01/30 09:22:04;;;;;;;30.65;9.43;;;;;;;6.91;100.00;102280.97;5112283;27;20059;-75
2022/01/30 09:24:29;;;;;;;31.45;9.27;;;;;;;6.93;100.00;102281.56;5122432;27;20042;-75
2022/01/30 09:26:55;;;;;;;34.22;8.48;;;;;;;6.99;100.00;102288.09;5120485;27;20034;-74
2022/01/30 09:29:22;;;;;;;27.85;8.00;;;;;;;7.05;100.00;102287.19;5118249;27;20376;-76
2022/01/30 09:31:49;;;;;;;31.50;7.32;;;;;;;7.08;100.00;102287.59;5075856;28;20053;-75
2022/01/30 09:34:14;;;;;;;35.83;7.88;;;;;;;7.12;100.00;102293.50;5104922;28;20085;-75
2022/01/30 09:36:40;;;;;;;33.15;6.53;;;;;;;7.16;100.00;102290.06;5083988;28;20041;-75
2022/01/30 09:39:05;;;;;;;34.08;6.38;;;;;;;7.24;100.00;102277.84;5071076;28;20028;-75
2022/01/30 09:41:31;;;;;;;33.60;7.10;;;;;;;7.26;100.00;102275.69;5082456;28;20503;-75
2022/01/30 09:43:57;;;;;;;36.08;6.78;;;;;;;7.29;100.00;102289.06;5079881;28;20085;-75
2022/01/30 09:46:23;;;;;;;31.15;6.63;;;;;;;7.37;100.00;102294.28;5071402;28;20031;-75
2022/01/30 09:48:48;;;;;;;30.27;6.70;;;;;;;7.42;100.00;102290.00;5086285;28;20032;-75
2022/01/30 09:51:14;;;;;;;32.70;6.82;;;;;;;7.48;100.00;102300.97;5067059;28;20035;-74
2022/01/30 09:53:39;;;;;;;33.38;6.65;;;;;;;7.56;100.00;102299.84;5072229;28;20036;-75
2022/01/30 09:56:06;;;;;;;26.63;5.90;;;;;;;7.64;100.00;102307.81;5101829;28;20035;-75
2022/01/30 09:58:32;;;;;;;32.75;6.93;;;;;;;7.70;100.00;102304.13;5091627;28;20115;-75
2022/01/30 10:00:57;;;;;;;39.30;6.63;;;;;;;7.73;100.00;102298.13;5108146;28;20091;-75
2022/01/30 10:03:23;;;;;;;33.17;6.45;;;;;;;7.76;100.00;102305.13;5069624;28;20024;-75
2022/01/30 10:06:19;;;;;;;32.75;6.13;;;;;;;7.83;100.00;102295.69;5096593;28;20028;-75
2022/01/30 10:08:47;;;;;;;34.92;5.88;;;;;;;7.90;100.00;102291.97;5100742;28;20098;-75
2022/01/30 10:11:32;;;;;;;32.28;6.13;;;;;;;7.98;100.00;102299.97;5091265;28;20465;-75
2022/01/30 10:14:10;;;;;;;30.10;5.63;;;;;;;8.06;100.00;102294.94;5099326;28;20028;-75
2022/01/30 10:16:42;;;;;;;40.75;6.47;;;;;;;8.12;100.00;102290.41;5103567;28;20042;-75
2022/01/30 10:19:10;;;;;;;31.42;6.32;;;;;;;8.13;100.00;102303.13;5093615;28;20039;-75
2022/01/30 10:21:36;;;;;;;32.38;6.22;;;;;;;8.19;100.00;102299.47;5095274;28;20044;-75
2022/01/30 10:24:26;;;;;;;34.70;6.80;;;;;;;8.25;100.00;102289.38;5097627;28;20080;-75
2022/01/30 10:26:53;;;;;;;29.15;6.15;;;;;;;8.36;100.00;102290.47;5070485;28;20025;-75
2022/01/30 10:29:28;;;;;;;38.28;6.47;;;;;;;8.44;100.00;102291.03;5090325;28;20056;-75
2022/01/30 10:32:10;;;;;;;26.60;6.25;;;;;;;8.54;100.00;102293.22;5113314;28;20052;-75
2022/01/30 10:34:36;;;;;;;29.45;6.50;;;;;;;8.61;100.00;102299.50;5113862;28;20498;-75
2022/01/30 10:37:12;;;;;;;30.67;6.65;;;;;;;8.69;100.00;102290.84;5098086;28;20028;-75
2022/01/30 10:39:55;;;;;;;40.28;6.82;;;;;;;8.77;100.00;102278.56;5123230;27;20030;-75
2022/01/30 10:42:41;;;;;;;31.10;7.95;;;;;;;8.87;100.00;102283.53;5093163;28;20024;-75
2022/01/30 10:45:29;;;;;;;28.38;6.78;;;;;;;8.97;100.00;102277.38;5095925;28;20076;-75
2022/01/30 10:48:16;;;;;;;34.90;7.38;;;;;;;9.04;100.00;102287.25;5108943;28;20023;-75
2022/01/30 10:50:44;;;;;;;26.05;6.25;;;;;;;9.10;100.00;102289.06;5110451;28;20054;-73
2022/01/30 10:53:23;;;;;;;31.90;6.80;;;;;;;9.12;100.00;102286.06;5080261;28;20118;-77
2022/01/30 10:55:49;;;;;;;30.52;6.28;;;;;;;9.15;100.00;102280.88;5090537;28;20393;-73
2022/01/30 10:58:19;;;;;;;30.38;7.13;;;;;;;9.25;100.00;102279.41;5100468;28;20031;-74
2022/01/30 11:00:52;;;;;;;33.22;6.80;;;;;;;9.31;100.00;102282.06;5063096;28;20055;-74
2022/01/30 11:03:37;;;;;;;29.48;6.55;;;;;;;9.41;100.00;102289.78;5059160;28;20032;-74
2022/01/30 11:06:06;;;;;;;25.27;7.10;;;;;;;9.46;100.00;102280.72;5081479;28;20514;-74
2022/01/30 11:08:33;;;;;;;37.65;7.07;;;;;;;9.52;100.00;102279.75;5060840;28;20036;-71
2022/01/30 11:11:11;;;;;;;37.65;7.35;;;;;;;9.54;100.00;102278.41;5065279;28;20051;-70
2022/01/30 11:13:48;;;;;;;29.08;6.40;;;;;;;9.54;100.00;102272.88;5059569;28;20068;-70
2022/01/30 11:18:58;;;;;;;28.77;5.50;;;;;;;9.62;100.00;102255.00;5084230;28;20111;-69
2022/01/30 11:21:23;;;;;;;29.50;5.78;;;;;;;9.68;100.00;102259.56;5068988;28;20043;-69
2022/01/30 11:23:50;;;;;;;39.25;6.85;;;;;;;9.76;100.00;102258.34;5077339;28;20036;-69
2022/01/30 11:26:15;;;;;;;33.55;5.78;;;;;;;9.82;100.00;102254.59;5079326;28;20034;-69
2022/01/30 11:28:41;;;;;;;35.25;6.03;;;;;;;9.89;100.00;102258.06;5081238;28;20044;-69
2022/01/30 11:31:07;;;;;;;26.38;6.35;;;;;;;9.94;100.00;102247.03;5071935;27;20042;-69
2022/01/30 11:33:32;;;;;;;36.85;6.53;;;;;;;10.01;100.00;102244.97;5087751;28;20028;-70
2022/01/30 11:35:58;;;;;;;28.75;5.72;;;;;;;10.07;100.00;102240.38;5110895;27;20032;-69
2022/01/30 11:38:23;;;;;;;33.40;6.78;;;;;;;10.12;100.00;102246.03;5110571;28;20471;-69
2022/01/30 11:41:09;;;;;;;32.50;6.82;;;;;;;10.16;100.00;102240.81;5086532;28;20043;-69
2022/01/30 11:43:34;;;;;;;27.40;6.00;;;;;;;10.19;100.00;102237.53;5099983;27;20027;-69
2022/01/30 11:46:18;;;;;;;33.30;7.18;;;;;;;10.17;100.00;102223.03;5102501;27;20081;-70
2022/01/30 11:48:43;;;;;;;31.73;7.75;;;;;;;10.10;100.00;102225.16;5092162;27;20039;-70
2022/01/30 11:51:09;;;;;;;29.98;6.80;;;;;;;10.05;100.00;102218.41;5094172;27;20035;-70
2022/01/30 11:53:37;;;;;;;40.50;12.02;;;;;;;9.98;98.79;102212.16;5112146;27;20034;-70
2022/01/30 11:56:03;;;;;;;30.50;7.97;;;;;;;10.00;98.67;102206.34;5090547;27;20036;-70
2022/01/30 11:58:41;;;;;;;33.63;6.65;;;;;;;9.93;99.55;102200.13;5125044;27;20063;-70
2022/01/30 12:01:25;;;;;;;28.38;7.03;;;;;;;9.95;99.86;102193.25;5114389;27;20041;-71
2022/01/30 12:03:59;;;;;;;30.65;6.63;;;;;;;9.95;99.86;102198.78;5116669;27;20031;-70
2022/01/30 12:06:24;;;;;;;27.17;7.50;;;;;;;10.03;100.00;102186.44;5113495;28;20039;-71